Aérodrome :
LOGIN :

S'inscrire | Disclaimer

   EN    FR    IT 

 










Légende :    VFR   VFR Marginal   IFR   IFR Intensif   IFR Très Intensif
Visi : 
Plafond : 
>= 8 km
>= 3000ft
5 à 8 km
1000 à 3000 ft
1500m à 5 km
500 à 1000 ft
800 à 1500m
200 à 500 ft
< 800m
< 200 ft
Symboles :   Orages  Brouillard  Fortes neiges  Fortes précipitations  Vent > 20 kt
SIGMETs :   Divers  Orages  Givrage  Turbulence  Onde Orograph.  Cendres Volcan.







- Altitude de l'aérodrome : 1325 ft
- Code IATA : EBU
- Voir les cartes d'approche


LFMH - St-Etienne Boutheon

DERNIER METAR :
  • 281700Z AUTO 33006KT 300V360 CAVOK 18/05 Q1025 NOSIG

METARs EXPIRÉS :
  • 281630Z AUTO 35007KT CAVOK 18/02 Q1024 NOSIG
  • 281600Z AUTO 36007KT CAVOK 18/04 Q1024 NOSIG
  • 281530Z AUTO 36007KT CAVOK 19/03 Q1024 NOSIG
  • 281500Z AUTO 33007KT 300V360 CAVOK 18/03 Q1024 NOSIG
  • 281430Z AUTO 35007KT 290V020 CAVOK 18/04 Q1024 NOSIG

TAF TAF LFMH
Valide du 28 à 15h jusqu'au 29 à 15h UTC


281400Z 2815/2915 34007KT 9999 FEW055 SCT070
BECMG 2821/2824 VRB03KT CAVOK
PROB30
TEMPO 2905/2906 5000 BR NSC
BECMG 2909/2912 34005KT SCT030
ATIS : +33 4 77 36 17 51
Pas de NOTAMs connus pour ce terrain.



MET'MAP, la Météo Aéronautique d'un coup d'oeil ! - Copyright ORBIFLY Décembre 2007 - Disclaimer

ORBIFLY MET'MAP TEAM :

Programmation & Développement : Alexandra Zaïnal
Conception & Développement : Baudouin d'Aumeries
Co-Programmation & Développement : Marc-Olivier Méhu
Soutien technique & logistique : Manuel Goepfert

Contact : metmap@orbifly.com




SOURCES & CREDITS :

   NOAA